KGVL/GVL METAR and TAF weather

Enter ICAO airport designator
Station Type Date Time Source
KGVL METAR 2020/03/28 14:53 UTC NOAA

KGVL 281453Z AUTO 27010G17KT 10SM BKN022 21/17 A3004 RMK AO2 SLP159 T02110167 51011


Station Type Date Time Source
KGVL Decoded METAR 2020/03/28 14:53 UTC NOAA

GILMER MEMORIAL AIRPORT, GA, United States (KGVL) 34-16N 83-50W 386M
Mar 28, 2020 - 10:53 AM EDT / 2020.03.28 1453 UTC
Wind: from the W (270 degrees) at 12 MPH (10 KT) gusting to 20 MPH (17 KT):0
Visibility: 10 mile(s):0
Sky conditions: mostly cloudy
Temperature: 70.0 F (21.1 C)
Dew Point: 62.1 F (16.7 C)
Relative Humidity: 75%
Pressure (altimeter): 30.04 in. Hg (1017 hPa)
Pressure tendency: 0.03 inches (1.1 hPa) higher than three hours ago
ob: KGVL 281453Z AUTO 27010G17KT 10SM BKN022 21/17 A3004 RMK AO2 SLP159 T02110167 51011
cycle: 15

Station Type Date Time Source
KGVL TAF UTC NOAA

Error!

Example: see airport list